sensor_id;sensor_type;location;lat;lon;timestamp;pressure;altitude;pressure_sealevel;temperature;humidity
71716;BME280;59568;52.128;5.434;2022-10-17T00:02:24;101800.59;;;12.70;92.24
71716;BME280;59568;52.128;5.434;2022-10-17T00:04:51;101805.84;;;12.70;92.30
71716;BME280;59568;52.128;5.434;2022-10-17T00:07:18;101801.63;;;12.69;92.40
71716;BME280;59568;52.128;5.434;2022-10-17T00:09:45;101806.38;;;12.67;92.20
71716;BME280;59568;52.128;5.434;2022-10-17T00:12:12;101808.50;;;12.65;92.37
71716;BME280;59568;52.128;5.434;2022-10-17T00:14:39;101795.69;;;12.64;92.19
71716;BME280;59568;52.128;5.434;2022-10-17T00:17:06;101789.63;;;12.63;92.52
71716;BME280;59568;52.128;5.434;2022-10-17T00:19:33;101781.25;;;12.61;92.19
71716;BME280;59568;52.128;5.434;2022-10-17T00:22:00;101787.06;;;12.58;92.27
71716;BME280;59568;52.128;5.434;2022-10-17T00:24:29;101782.59;;;12.58;92.50
71716;BME280;59568;52.128;5.434;2022-10-17T00:26:57;101777.63;;;12.57;92.20
71716;BME280;59568;52.128;5.434;2022-10-17T00:29:24;101771.88;;;12.55;92.22
71716;BME280;59568;52.128;5.434;2022-10-17T00:31:55;101771.09;;;12.54;92.08
71716;BME280;59568;52.128;5.434;2022-10-17T00:34:23;101772.44;;;12.52;92.09
71716;BME280;59568;52.128;5.434;2022-10-17T00:36:50;101770.59;;;12.52;92.18
71716;BME280;59568;52.128;5.434;2022-10-17T00:39:17;101764.28;;;12.53;92.22
71716;BME280;59568;52.128;5.434;2022-10-17T00:41:44;101768.75;;;12.53;92.28
71716;BME280;59568;52.128;5.434;2022-10-17T00:46:58;101774.75;;;12.53;92.32
71716;BME280;59568;52.128;5.434;2022-10-17T00:49:29;101767.19;;;12.52;92.34
71716;BME280;59568;52.128;5.434;2022-10-17T00:52:07;101759.59;;;12.50;92.69
71716;BME280;59568;52.128;5.434;2022-10-17T00:54:52;101758.53;;;12.51;92.64
71716;BME280;59568;52.128;5.434;2022-10-17T00:57:20;101776.09;;;12.51;92.68
71716;BME280;59568;52.128;5.434;2022-10-17T00:59:50;101764.84;;;12.50;92.77
71716;BME280;59568;52.128;5.434;2022-10-17T01:02:20;101761.16;;;12.51;92.63
71716;BME280;59568;52.128;5.434;2022-10-17T01:04:50;101763.00;;;12.51;92.94
71716;BME280;59568;52.128;5.434;2022-10-17T01:07:17;101760.38;;;12.51;92.78
71716;BME280;59568;52.128;5.434;2022-10-17T01:09:45;101760.38;;;12.51;92.94
71716;BME280;59568;52.128;5.434;2022-10-17T01:12:24;101760.38;;;12.51;92.84
71716;BME280;59568;52.128;5.434;2022-10-17T01:22:48;101740.91;;;12.57;93.64
71716;BME280;59568;52.128;5.434;2022-10-17T01:26:00;101742.00;;;12.56;93.54
71716;BME280;59568;52.128;5.434;2022-10-17T01:33:30;101731.78;;;12.54;93.46
71716;BME280;59568;52.128;5.434;2022-10-17T01:36:25;101732.81;;;12.53;93.57
71716;BME280;59568;52.128;5.434;2022-10-17T01:39:10;101737.28;;;12.53;93.33
71716;BME280;59568;52.128;5.434;2022-10-17T01:42:22;101735.75;;;12.52;93.39
71716;BME280;59568;52.128;5.434;2022-10-17T01:45:17;101740.19;;;12.51;93.07
71716;BME280;59568;52.128;5.434;2022-10-17T01:47:41;101738.63;;;12.50;93.14
71716;BME280;59568;52.128;5.434;2022-10-17T01:50:22;101733.38;;;12.50;93.24
71716;BME280;59568;52.128;5.434;2022-10-17T01:52:54;101732.59;;;12.50;93.07
71716;BME280;59568;52.128;5.434;2022-10-17T01:55:29;101731.81;;;12.49;93.19
71716;BME280;59568;52.128;5.434;2022-10-17T01:58:04;101722.38;;;12.48;93.34
71716;BME280;59568;52.128;5.434;2022-10-17T02:00:34;101720.28;;;12.50;93.24
71716;BME280;59568;52.128;5.434;2022-10-17T02:03:06;101718.44;;;12.51;93.50
71716;BME280;59568;52.128;5.434;2022-10-17T02:05:38;101702.97;;;12.49;93.40
71716;BME280;59568;52.128;5.434;2022-10-17T02:08:05;101706.41;;;12.50;93.60
71716;BME280;59568;52.128;5.434;2022-10-17T02:10:46;101694.06;;;12.50;93.45
71716;BME280;59568;52.128;5.434;2022-10-17T02:16:13;101681.72;;;12.51;93.85
71716;BME280;59568;52.128;5.434;2022-10-17T02:18:54;101687.47;;;12.53;93.86
71716;BME280;59568;52.128;5.434;2022-10-17T02:21:44;101689.81;;;12.54;93.98
71716;BME280;59568;52.128;5.434;2022-10-17T02:27:07;101685.84;;;12.57;94.24
71716;BME280;59568;52.128;5.434;2022-10-17T02:29:43;101680.63;;;12.57;94.25
71716;BME280;59568;52.128;5.434;2022-10-17T02:32:24;101682.19;;;12.58;94.39
71716;BME280;59568;52.128;5.434;2022-10-17T02:34:55;101678.50;;;12.59;94.57
71716;BME280;59568;52.128;5.434;2022-10-17T02:37:27;101677.97;;;12.62;94.72
71716;BME280;59568;52.128;5.434;2022-10-17T02:39:58;101674.25;;;12.63;94.98
71716;BME280;59568;52.128;5.434;2022-10-17T02:42:27;101673.44;;;12.68;94.96
71716;BME280;59568;52.128;5.434;2022-10-17T02:44:58;101674.22;;;12.68;94.63
71716;BME280;59568;52.128;5.434;2022-10-17T02:49:58;101663.72;;;12.68;94.79
71716;BME280;59568;52.128;5.434;2022-10-17T02:52:39;101668.69;;;12.70;95.01
71716;BME280;59568;52.128;5.434;2022-10-17T02:55:11;101669.47;;;12.70;94.93
71716;BME280;59568;52.128;5.434;2022-10-17T02:58:01;101675.50;;;12.71;94.72
71716;BME280;59568;52.128;5.434;2022-10-17T03:00:30;101679.69;;;12.72;95.05
71716;BME280;59568;52.128;5.434;2022-10-17T03:02:57;101677.06;;;12.72;94.77
71716;BME280;59568;52.128;5.434;2022-10-17T03:05:27;101679.41;;;12.73;94.83
71716;BME280;59568;52.128;5.434;2022-10-17T03:07:55;101687.22;;;12.78;95.28
71716;BME280;59568;52.128;5.434;2022-10-17T03:10:22;101688.22;;;12.83;95.64
71716;BME280;59568;52.128;5.434;2022-10-17T03:12:49;101688.22;;;12.83;95.37
71716;BME280;59568;52.128;5.434;2022-10-17T03:15:16;101687.66;;;12.86;95.56
71716;BME280;59568;52.128;5.434;2022-10-17T03:17:43;101682.13;;;12.87;95.71
71716;BME280;59568;52.128;5.434;2022-10-17T03:20:11;101678.19;;;12.90;95.83
71716;BME280;59568;52.128;5.434;2022-10-17T03:22:38;101684.44;;;12.94;95.70
71716;BME280;59568;52.128;5.434;2022-10-17T03:25:05;101674.44;;;12.96;95.98
71716;BME280;59568;52.128;5.434;2022-10-17T03:27:32;101683.81;;;13.02;95.99
71716;BME280;59568;52.128;5.434;2022-10-17T03:29:59;101681.19;;;13.02;96.03
71716;BME280;59568;52.128;5.434;2022-10-17T03:32:25;101673.81;;;13.04;96.17
71716;BME280;59568;52.128;5.434;2022-10-17T03:34:52;101687.44;;;13.06;96.33
71716;BME280;59568;52.128;5.434;2022-10-17T03:37:19;101688.22;;;13.07;96.37
71716;BME280;59568;52.128;5.434;2022-10-17T03:39:46;101686.88;;;13.09;96.29
71716;BME280;59568;52.128;5.434;2022-10-17T03:42:13;101684.75;;;13.11;96.27
71716;BME280;59568;52.128;5.434;2022-10-17T03:44:40;101688.38;;;13.15;96.38
71716;BME280;59568;52.128;5.434;2022-10-17T03:47:07;101690.16;;;13.20;96.41
71716;BME280;59568;52.128;5.434;2022-10-17T03:49:38;101695.09;;;13.22;96.49
71716;BME280;59568;52.128;5.434;2022-10-17T03:52:05;101699.22;;;13.28;96.66
71716;BME280;59568;52.128;5.434;2022-10-17T03:54:36;101701.34;;;13.31;96.73
71716;BME280;59568;52.128;5.434;2022-10-17T03:57:03;101694.47;;;13.35;96.88
71716;BME280;59568;52.128;5.434;2022-10-17T03:59:30;101697.56;;;13.37;96.67
71716;BME280;59568;52.128;5.434;2022-10-17T04:01:56;101695.19;;;13.41;96.86
71716;BME280;59568;52.128;5.434;2022-10-17T04:04:23;101693.31;;;13.41;97.03
71716;BME280;59568;52.128;5.434;2022-10-17T04:06:50;101688.06;;;13.41;96.90
71716;BME280;59568;52.128;5.434;2022-10-17T04:09:17;101685.94;;;13.43;96.87
71716;BME280;59568;52.128;5.434;2022-10-17T04:11:44;101683.31;;;13.43;96.91
71716;BME280;59568;52.128;5.434;2022-10-17T04:14:11;101696.88;;;13.50;96.92
71716;BME280;59568;52.128;5.434;2022-10-17T04:16:38;101696.41;;;13.48;97.00
71716;BME280;59568;52.128;5.434;2022-10-17T04:19:05;101694.25;;;13.50;96.82
71716;BME280;59568;52.128;5.434;2022-10-17T04:21:32;101697.38;;;13.52;96.97
71716;BME280;59568;52.128;5.434;2022-10-17T04:23:59;101706.03;;;13.53;96.85
71716;BME280;59568;52.128;5.434;2022-10-17T04:26:27;101703.69;;;13.51;96.81
71716;BME280;59568;52.128;5.434;2022-10-17T04:28:53;101716.53;;;13.53;97.01
71716;BME280;59568;52.128;5.434;2022-10-17T04:31:21;101705.75;;;13.54;96.83
71716;BME280;59568;52.128;5.434;2022-10-17T04:33:49;101704.19;;;13.53;96.76
71716;BME280;59568;52.128;5.434;2022-10-17T04:36:18;101703.19;;;13.49;96.75
71716;BME280;59568;52.128;5.434;2022-10-17T04:38:46;101706.59;;;13.50;96.58
71716;BME280;59568;52.128;5.434;2022-10-17T04:41:15;101713.13;;;13.52;96.65
71716;BME280;59568;52.128;5.434;2022-10-17T04:43:42;101708.38;;;13.54;96.60
71716;BME280;59568;52.128;5.434;2022-10-17T04:46:15;101725.69;;;13.55;96.71
71716;BME280;59568;52.128;5.434;2022-10-17T04:48:42;101725.91;;;13.59;96.79
71716;BME280;59568;52.128;5.434;2022-10-17T04:51:11;101722.19;;;13.60;96.66
71716;BME280;59568;52.128;5.434;2022-10-17T04:53:40;101732.44;;;13.62;96.81
71716;BME280;59568;52.128;5.434;2022-10-17T04:56:10;101734.78;;;13.63;96.85
71716;BME280;59568;52.128;5.434;2022-10-17T04:58:37;101741.53;;;13.69;96.86
71716;BME280;59568;52.128;5.434;2022-10-17T05:01:11;101741.53;;;13.69;96.98
71716;BME280;59568;52.128;5.434;2022-10-17T05:03:38;101741.75;;;13.73;97.02
71716;BME280;59568;52.128;5.434;2022-10-17T05:06:07;101743.28;;;13.74;97.00
71716;BME280;59568;52.128;5.434;2022-10-17T05:08:35;101739.34;;;13.76;96.94
71716;BME280;59568;52.128;5.434;2022-10-17T05:11:03;101739.03;;;13.78;96.99
71716;BME280;59568;52.128;5.434;2022-10-17T05:13:32;101743.50;;;13.77;97.08
71716;BME280;59568;52.128;5.434;2022-10-17T05:15:59;101743.22;;;13.79;97.01
71716;BME280;59568;52.128;5.434;2022-10-17T05:18:27;101740.59;;;13.79;96.96
71716;BME280;59568;52.128;5.434;2022-10-17T05:20:55;101738.25;;;13.77;97.11
71716;BME280;59568;52.128;5.434;2022-10-17T05:23:21;101729.31;;;13.78;96.98
71716;BME280;59568;52.128;5.434;2022-10-17T05:25:53;101742.97;;;13.81;96.72
71716;BME280;59568;52.128;5.434;2022-10-17T05:28:22;101738.97;;;13.83;97.12
71716;BME280;59568;52.128;5.434;2022-10-17T05:30:49;101744.13;;;13.88;97.19
71716;BME280;59568;52.128;5.434;2022-10-17T05:33:16;101735.47;;;13.88;96.96
71716;BME280;59568;52.128;5.434;2022-10-17T05:35:43;101747.25;;;13.90;97.10
71716;BME280;59568;52.128;5.434;2022-10-17T05:38:10;101751.47;;;13.91;97.19
71716;BME280;59568;52.128;5.434;2022-10-17T05:40:37;101744.06;;;13.93;97.21
71716;BME280;59568;52.128;5.434;2022-10-17T05:43:05;101744.56;;;13.95;97.30
71716;BME280;59568;52.128;5.434;2022-10-17T05:45:31;101756.66;;;13.96;97.34
71716;BME280;59568;52.128;5.434;2022-10-17T05:47:58;101762.69;;;13.97;97.29
71716;BME280;59568;52.128;5.434;2022-10-17T05:50:26;101752.94;;;13.97;97.20
71716;BME280;59568;52.128;5.434;2022-10-17T05:52:53;101753.72;;;13.98;97.24
71716;BME280;59568;52.128;5.434;2022-10-17T05:55:21;101750.81;;;13.99;97.21
71716;BME280;59568;52.128;5.434;2022-10-17T05:57:49;101750.81;;;13.99;96.98
71716;BME280;59568;52.128;5.434;2022-10-17T06:00:19;101747.13;;;14.01;97.21
71716;BME280;59568;52.128;5.434;2022-10-17T06:02:47;101748.97;;;14.00;97.08
71716;BME280;59568;52.128;5.434;2022-10-17T06:05:14;101741.88;;;14.01;97.23
71716;BME280;59568;52.128;5.434;2022-10-17T06:07:41;101737.69;;;13.99;97.00
71716;BME280;59568;52.128;5.434;2022-10-17T06:10:09;101758.69;;;13.99;97.04
71716;BME280;59568;52.128;5.434;2022-10-17T06:12:43;101755.50;;;14.03;97.10
71716;BME280;59568;52.128;5.434;2022-10-17T06:15:10;101763.88;;;14.05;97.16
71716;BME280;59568;52.128;5.434;2022-10-17T06:17:38;101769.91;;;14.05;97.05
71716;BME280;59568;52.128;5.434;2022-10-17T06:20:05;101763.09;;;14.04;97.07
71716;BME280;59568;52.128;5.434;2022-10-17T06:22:32;101751.25;;;14.07;97.00
71716;BME280;59568;52.128;5.434;2022-10-17T06:24:59;101763.31;;;14.08;97.01
71716;BME280;59568;52.128;5.434;2022-10-17T06:27:26;101764.88;;;14.09;97.21
71716;BME280;59568;52.128;5.434;2022-10-17T06:29:53;101775.41;;;14.09;97.14
71716;BME280;59568;52.128;5.434;2022-10-17T06:32:20;101782.41;;;14.13;97.07
71716;BME280;59568;52.128;5.434;2022-10-17T06:34:47;101781.06;;;14.16;97.16
71716;BME280;59568;52.128;5.434;2022-10-17T06:37:14;101794.13;;;14.21;97.15
71716;BME280;59568;52.128;5.434;2022-10-17T06:39:41;101790.41;;;14.22;97.22
71716;BME280;59568;52.128;5.434;2022-10-17T06:42:08;101786.97;;;14.27;97.50
71716;BME280;59568;52.128;5.434;2022-10-17T06:44:35;101787.44;;;14.29;97.12
71716;BME280;59568;52.128;5.434;2022-10-17T06:47:02;101795.03;;;14.30;97.20
71716;BME280;59568;52.128;5.434;2022-10-17T06:49:29;101791.84;;;14.33;97.16
71716;BME280;59568;52.128;5.434;2022-10-17T06:51:56;101803.84;;;14.39;97.33
71716;BME280;59568;52.128;5.434;2022-10-17T06:54:23;101804.31;;;14.42;97.53
71716;BME280;59568;52.128;5.434;2022-10-17T06:56:50;101813.47;;;14.44;97.22
71716;BME280;59568;52.128;5.434;2022-10-17T06:59:17;101821.88;;;14.46;97.33
71716;BME280;59568;52.128;5.434;2022-10-17T07:01:44;101816.31;;;14.48;97.04
71716;BME280;59568;52.128;5.434;2022-10-17T07:04:13;101813.69;;;14.48;97.16
71716;BME280;59568;52.128;5.434;2022-10-17T07:06:40;101810.50;;;14.51;97.13
71716;BME280;59568;52.128;5.434;2022-10-17T07:09:07;101822.28;;;14.53;97.00
71716;BME280;59568;52.128;5.434;2022-10-17T07:11:34;101826.22;;;14.56;96.97
71716;BME280;59568;52.128;5.434;2022-10-17T07:14:01;101830.91;;;14.59;97.01
71716;BME280;59568;52.128;5.434;2022-10-17T07:16:29;101828.78;;;14.61;97.16
71716;BME280;59568;52.128;5.434;2022-10-17T07:18:56;101832.41;;;14.65;97.11
71716;BME280;59568;52.128;5.434;2022-10-17T07:21:24;101831.31;;;14.66;96.98
71716;BME280;59568;52.128;5.434;2022-10-17T07:23:51;101836.28;;;14.68;97.00
71716;BME280;59568;52.128;5.434;2022-10-17T07:26:18;101839.69;;;14.68;97.06
71716;BME280;59568;52.128;5.434;2022-10-17T07:28:49;101839.91;;;14.72;97.07
71716;BME280;59568;52.128;5.434;2022-10-17T07:31:18;101830.16;;;14.72;96.96
71716;BME280;59568;52.128;5.434;2022-10-17T07:33:46;101823.56;;;14.75;96.90
71716;BME280;59568;52.128;5.434;2022-10-17T07:36:13;101828.81;;;14.75;97.07
71716;BME280;59568;52.128;5.434;2022-10-17T07:38:41;101844.28;;;14.76;96.86
71716;BME280;59568;52.128;5.434;2022-10-17T07:41:10;101843.25;;;14.77;97.01
71716;BME280;59568;52.128;5.434;2022-10-17T07:43:37;101842.66;;;14.81;96.87
71716;BME280;59568;52.128;5.434;2022-10-17T07:46:05;101841.31;;;14.83;96.87
71716;BME280;59568;52.128;5.434;2022-10-17T07:48:32;101848.13;;;14.84;96.63
71716;BME280;59568;52.128;5.434;2022-10-17T07:51:05;101863.13;;;14.84;96.57
71716;BME280;59568;52.128;5.434;2022-10-17T07:53:38;101864.41;;;14.86;96.97
71716;BME280;59568;52.128;5.434;2022-10-17T07:56:10;101878.34;;;14.87;96.69
71716;BME280;59568;52.128;5.434;2022-10-17T07:58:37;101909.34;;;14.90;96.67
71716;BME280;59568;52.128;5.434;2022-10-17T08:01:06;101944.34;;;14.90;96.51
71716;BME280;59568;52.128;5.434;2022-10-17T08:03:43;101961.97;;;14.90;96.74
71716;BME280;59568;52.128;5.434;2022-10-17T08:06:11;101985.66;;;14.90;96.67
71716;BME280;59568;52.128;5.434;2022-10-17T08:08:38;101998.53;;;14.91;96.52
71716;BME280;59568;52.128;5.434;2022-10-17T08:11:08;101995.09;;;14.91;96.70
71716;BME280;59568;52.128;5.434;2022-10-17T08:13:38;101995.91;;;14.91;96.63
71716;BME280;59568;52.128;5.434;2022-10-17T08:16:08;101992.19;;;14.92;96.99
71716;BME280;59568;52.128;5.434;2022-10-17T08:18:35;101995.81;;;14.96;97.33
71716;BME280;59568;52.128;5.434;2022-10-17T08:21:04;102014.47;;;15.00;97.38
71716;BME280;59568;52.128;5.434;2022-10-17T08:23:32;101994.19;;;15.01;97.41
71716;BME280;59568;52.128;5.434;2022-10-17T08:26:00;101971.78;;;15.03;97.77
71716;BME280;59568;52.128;5.434;2022-10-17T08:28:27;101973.56;;;15.08;97.93
71716;BME280;59568;52.128;5.434;2022-10-17T08:31:07;101972.97;;;15.11;98.15
71716;BME280;59568;52.128;5.434;2022-10-17T08:33:34;101978.72;;;15.13;98.40
71716;BME280;59568;52.128;5.434;2022-10-17T08:36:02;101991.31;;;15.16;98.33
71716;BME280;59568;52.128;5.434;2022-10-17T08:38:31;101985.47;;;15.19;98.54
71716;BME280;59568;52.128;5.434;2022-10-17T08:41:10;101989.69;;;15.20;98.69
71716;BME280;59568;52.128;5.434;2022-10-17T08:46:33;102037.78;;;15.26;98.58
71716;BME280;59568;52.128;5.434;2022-10-17T08:49:03;102046.66;;;15.30;98.84
71716;BME280;59568;52.128;5.434;2022-10-17T08:51:40;102057.69;;;15.32;98.72
71716;BME280;59568;52.128;5.434;2022-10-17T08:54:16;102070.59;;;15.33;98.97
71716;BME280;59568;52.128;5.434;2022-10-17T08:56:49;102076.63;;;15.34;99.13
71716;BME280;59568;52.128;5.434;2022-10-17T08:59:35;102070.28;;;15.35;99.19
71716;BME280;59568;52.128;5.434;2022-10-17T09:05:28;102022.81;;;15.40;99.23
71716;BME280;59568;52.128;5.434;2022-10-17T09:19:43;101974.34;;;15.55;99.74
71716;BME280;59568;52.128;5.434;2022-10-17T09:22:16;101972.19;;;15.57;99.68
71716;BME280;59568;52.128;5.434;2022-10-17T09:24:51;101971.91;;;15.58;99.66
71716;BME280;59568;52.128;5.434;2022-10-17T09:27:24;101988.19;;;15.61;99.77
71716;BME280;59568;52.128;5.434;2022-10-17T09:33:13;102022.44;;;15.61;99.93
71716;BME280;59568;52.128;5.434;2022-10-17T09:36:03;102033.00;;;15.61;99.79
71716;BME280;59568;52.128;5.434;2022-10-17T09:38:43;102052.53;;;15.60;99.85
71716;BME280;59568;52.128;5.434;2022-10-17T09:41:16;102056.22;;;15.58;99.73
71716;BME280;59568;52.128;5.434;2022-10-17T09:49:41;102002.63;;;15.63;99.78
71716;BME280;59568;52.128;5.434;2022-10-17T09:55:41;102004.34;;;15.73;100.00
71716;BME280;59568;52.128;5.434;2022-10-17T09:58:10;102012.94;;;15.78;100.00
71716;BME280;59568;52.128;5.434;2022-10-17T10:00:45;102002.88;;;15.81;100.00
71716;BME280;59568;52.128;5.434;2022-10-17T10:03:19;102002.81;;;15.86;100.00
71716;BME280;59568;52.128;5.434;2022-10-17T10:06:16;102016.66;;;15.91;100.00
71716;BME280;59568;52.128;5.434;2022-10-17T10:08:52;102044.00;;;15.95;100.00
71716;BME280;59568;52.128;5.434;2022-10-17T10:11:46;102045.06;;;15.94;100.00
71716;BME280;59568;52.128;5.434;2022-10-17T10:14:24;102050.34;;;15.94;100.00
71716;BME280;59568;52.128;5.434;2022-10-17T10:16:54;102059.81;;;15.95;100.00
71716;BME280;59568;52.128;5.434;2022-10-17T10:19:32;102057.66;;;15.97;100.00
71716;BME280;59568;52.128;5.434;2022-10-17T10:22:02;102066.53;;;16.02;100.00
71716;BME280;59568;52.128;5.434;2022-10-17T10:24:30;102089.72;;;16.05;100.00
71716;BME280;59568;52.128;5.434;2022-10-17T10:27:00;102103.97;;;16.04;100.00
71716;BME280;59568;52.128;5.434;2022-10-17T10:29:41;102108.25;;;16.00;100.00
71716;BME280;59568;52.128;5.434;2022-10-17T10:35:02;102124.66;;;15.96;100.00
71716;BME280;59568;52.128;5.434;2022-10-17T10:37:40;102117.81;;;15.95;100.00
71716;BME280;59568;52.128;5.434;2022-10-17T10:42:59;102131.47;;;15.97;100.00
71716;BME280;59568;52.128;5.434;2022-10-17T10:48:31;102129.75;;;16.07;100.00
71716;BME280;59568;52.128;5.434;2022-10-17T10:51:15;102132.09;;;16.08;100.00
71716;BME280;59568;52.128;5.434;2022-10-17T10:56:44;102140.09;;;16.17;100.00
71716;BME280;59568;52.128;5.434;2022-10-17T10:59:23;102136.91;;;16.20;100.00
71716;BME280;59568;52.128;5.434;2022-10-17T11:04:43;102147.34;;;16.25;100.00
71716;BME280;59568;52.128;5.434;2022-10-17T11:12:38;102154.38;;;16.44;100.00
71716;BME280;59568;52.128;5.434;2022-10-17T11:18:05;102158.91;;;16.43;100.00
71716;BME280;59568;52.128;5.434;2022-10-17T11:23:16;102169.84;;;16.50;100.00
71716;BME280;59568;52.128;5.434;2022-10-17T11:25:49;102171.19;;;16.48;100.00
71716;BME280;59568;52.128;5.434;2022-10-17T11:28:19;102175.50;;;16.44;100.00
71716;BME280;59568;52.128;5.434;2022-10-17T11:31:20;102179.63;;;16.36;100.00
71716;BME280;59568;52.128;5.434;2022-10-17T11:34:03;102188.38;;;16.31;100.00
71716;BME280;59568;52.128;5.434;2022-10-17T11:36:36;102193.75;;;16.26;100.00
71716;BME280;59568;52.128;5.434;2022-10-17T11:39:10;102202.25;;;16.23;100.00
71716;BME280;59568;52.128;5.434;2022-10-17T11:41:53;102206.25;;;16.21;100.00
71716;BME280;59568;52.128;5.434;2022-10-17T11:44:34;102212.59;;;16.20;100.00
71716;BME280;59568;52.128;5.434;2022-10-17T11:47:38;102211.81;;;16.19;100.00
71716;BME280;59568;52.128;5.434;2022-10-17T11:53:14;102219.06;;;16.27;100.00
71716;BME280;59568;52.128;5.434;2022-10-17T11:55:42;102223.75;;;16.30;99.99
71716;BME280;59568;52.128;5.434;2022-10-17T12:04:02;102206.09;;;16.45;100.00
71716;BME280;59568;52.128;5.434;2022-10-17T12:09:37;102209.81;;;16.57;100.00
71716;BME280;59568;52.128;5.434;2022-10-17T12:12:08;102207.97;;;16.58;100.00
71716;BME280;59568;52.128;5.434;2022-10-17T12:14:42;102204.25;;;16.59;100.00
71716;BME280;59568;52.128;5.434;2022-10-17T12:17:33;102201.63;;;16.59;99.95
71716;BME280;59568;52.128;5.434;2022-10-17T12:22:52;102206.97;;;16.68;100.00
71716;BME280;59568;52.128;5.434;2022-10-17T12:25:26;102214.22;;;16.62;100.00
71716;BME280;59568;52.128;5.434;2022-10-17T12:28:10;102220.56;;;16.61;99.83
71716;BME280;59568;52.128;5.434;2022-10-17T12:30:54;102221.66;;;16.60;99.64
71716;BME280;59568;52.128;5.434;2022-10-17T12:33:32;102217.72;;;16.57;99.78
71716;BME280;59568;52.128;5.434;2022-10-17T12:46:51;102238.63;;;16.54;99.55
71716;BME280;59568;52.128;5.434;2022-10-17T12:57:54;102236.78;;;16.41;99.26
71716;BME280;59568;52.128;5.434;2022-10-17T13:00:45;102245.25;;;16.37;99.09
71716;BME280;59568;52.128;5.434;2022-10-17T13:03:42;102248.38;;;16.40;99.11
71716;BME280;59568;52.128;5.434;2022-10-17T13:06:15;102253.16;;;16.37;99.21
71716;BME280;59568;52.128;5.434;2022-10-17T13:08:47;102254.75;;;16.38;99.32
71716;BME280;59568;52.128;5.434;2022-10-17T13:11:25;102256.78;;;16.42;99.39
71716;BME280;59568;52.128;5.434;2022-10-17T13:13:56;102270.88;;;16.51;99.32
71716;BME280;59568;52.128;5.434;2022-10-17T13:16:33;102263.69;;;16.56;99.45
71716;BME280;59568;52.128;5.434;2022-10-17T13:21:54;102274.59;;;16.50;99.32
71716;BME280;59568;52.128;5.434;2022-10-17T13:24:36;102274.09;;;16.48;99.20
71716;BME280;59568;52.128;5.434;2022-10-17T13:30:27;102292.50;;;16.53;99.26
71716;BME280;59568;52.128;5.434;2022-10-17T13:32:58;102293.00;;;16.55;99.32
71716;BME280;59568;52.128;5.434;2022-10-17T13:35:35;102300.84;;;16.60;99.25
71716;BME280;59568;52.128;5.434;2022-10-17T13:38:30;102313.53;;;16.58;99.33
71716;BME280;59568;52.128;5.434;2022-10-17T13:41:02;102314.53;;;16.62;99.37
71716;BME280;59568;52.128;5.434;2022-10-17T14:02:44;102337.00;;;16.73;99.34
71716;BME280;59568;52.128;5.434;2022-10-17T14:05:19;102345.41;;;16.75;99.21
71716;BME280;59568;52.128;5.434;2022-10-17T14:07:54;102343.28;;;16.77;99.17
71716;BME280;59568;52.128;5.434;2022-10-17T14:10:47;102341.91;;;16.80;99.25
71716;BME280;59568;52.128;5.434;2022-10-17T14:13:26;102341.72;;;16.76;99.08
71716;BME280;59568;52.128;5.434;2022-10-17T14:15:59;102333.50;;;16.78;98.85
71716;BME280;59568;52.128;5.434;2022-10-17T14:18:29;102335.34;;;16.77;99.03
71716;BME280;59568;52.128;5.434;2022-10-17T14:21:03;102334.78;;;16.81;98.65
71716;BME280;59568;52.128;5.434;2022-10-17T14:23:52;102330.06;;;16.77;98.85
71716;BME280;59568;52.128;5.434;2022-10-17T14:26:46;102337.22;;;16.77;98.60
71716;BME280;59568;52.128;5.434;2022-10-17T14:29:48;102334.09;;;16.75;98.68
71716;BME280;59568;52.128;5.434;2022-10-17T14:32:16;102333.72;;;16.82;98.70
71716;BME280;59568;52.128;5.434;2022-10-17T14:34:44;102327.88;;;16.85;98.49
71716;BME280;59568;52.128;5.434;2022-10-17T14:37:40;102332.78;;;16.91;98.42
71716;BME280;59568;52.128;5.434;2022-10-17T14:40:21;102331.31;;;16.99;98.72
71716;BME280;59568;52.128;5.434;2022-10-17T14:42:57;102341.78;;;17.04;98.15
71716;BME280;59568;52.128;5.434;2022-10-17T14:45:30;102342.19;;;17.11;98.42
71716;BME280;59568;52.128;5.434;2022-10-17T14:48:11;102342.28;;;17.20;98.15
71716;BME280;59568;52.128;5.434;2022-10-17T14:50:40;102346.78;;;17.20;98.23
71716;BME280;59568;52.128;5.434;2022-10-17T14:55:57;102341.13;;;17.12;97.76
71716;BME280;59568;52.128;5.434;2022-10-17T14:58:27;102353.13;;;17.05;97.64
71716;BME280;59568;52.128;5.434;2022-10-17T15:00:55;102350.09;;;16.97;97.51
71716;BME280;59568;52.128;5.434;2022-10-17T15:03:24;102352.53;;;16.94;97.59
71716;BME280;59568;52.128;5.434;2022-10-17T15:05:52;102354.50;;;16.88;97.40
71716;BME280;59568;52.128;5.434;2022-10-17T15:08:22;102365.13;;;16.83;97.38
71716;BME280;59568;52.128;5.434;2022-10-17T15:10:50;102369.09;;;16.81;97.44
71716;BME280;59568;52.128;5.434;2022-10-17T15:13:17;102371.03;;;16.75;97.42
71716;BME280;59568;52.128;5.434;2022-10-17T15:15:54;102373.47;;;16.71;97.61
71716;BME280;59568;52.128;5.434;2022-10-17T15:18:21;102371.59;;;16.72;97.32
71716;BME280;59568;52.128;5.434;2022-10-17T15:20:48;102375.34;;;16.71;97.59
71716;BME280;59568;52.128;5.434;2022-10-17T15:23:30;102375.06;;;16.72;97.72
71716;BME280;59568;52.128;5.434;2022-10-17T15:25:57;102381.19;;;16.68;97.47
71716;BME280;59568;52.128;5.434;2022-10-17T15:28:24;102380.41;;;16.67;97.60
71716;BME280;59568;52.128;5.434;2022-10-17T15:30:53;102378.03;;;16.66;97.81
71716;BME280;59568;52.128;5.434;2022-10-17T15:33:20;102384.13;;;16.66;97.77
71716;BME280;59568;52.128;5.434;2022-10-17T15:35:47;102394.19;;;16.64;97.62